»·PEaware :: NKS355 KSAN-MMSD

NKS355 :: KSAN-MMSD

FLIGHT INFORMATION

Flight Status: Arrived
Operator:
Spirit Airlines
More flights by this operator :: More flights under this callsign
Pilot: Kevin B. (675)
Aircraft: AIRBUS A320
(A320)
More flights by this aircraft type
Origin: KSAN San Diego Intl-Lindbergh
United States
Destination: MMSD Los Cabos Intl
Mexico
More flights between these airports :: More routes between these airports
Route: ZZOOO2 CENZA TIJ UT6 IMUSU UT25 LTO V4 ENEKO
File this flight plan on PilotEdge
Remarks:
Altitude:
(Current/Filed)
35,000ft
Speed:
(Current/Filed)
450kts
Departed: 21-Jul-19 12:08 PM
Arrived: 21-Jul-19 01:58 PM
Distance/Time
Traveled:
697nm/1:49
Distance/Time
To Go:
Arrived

Flight Plot

Page will automatically refresh every two minutes.

Flight plan parsing failed; only flown route is shown


Map Options




Map Legend


Flown Route
Filed Route
Departure Airport
Arrival Airport
Navaid (VOR, NDB)
Fix

Horizontal Profiles

Position Reports

Time Latitude Longitude Heading Altitude Ground
Speed
21-Jul-19 11:43 32.733694 -117.198949 147 25ft 0kts
21-Jul-19 11:44 32.733694 -117.198949 147 25ft 0kts
21-Jul-19 11:45 32.733694 -117.198949 147 25ft 0kts
21-Jul-19 11:46 32.733694 -117.198949 147 25ft 0kts
21-Jul-19 11:47 32.733694 -117.198949 147 25ft 0kts
21-Jul-19 11:48 32.733694 -117.198949 147 25ft 0kts
21-Jul-19 11:49 32.733694 -117.198949 147 25ft 0kts
21-Jul-19 11:50 32.733770 -117.199007 146 25ft 1kts
21-Jul-19 11:51 32.733945 -117.199409 80 25ft 2kts
21-Jul-19 11:52 32.733744 -117.199736 22 25ft 2kts
21-Jul-19 11:53 32.733631 -117.199772 12 25ft 0kts
21-Jul-19 11:54 32.733631 -117.199772 12 25ft 0kts
21-Jul-19 11:55 32.733631 -117.199772 12 25ft 0kts
21-Jul-19 11:56 32.733631 -117.199772 12 25ft 0kts
21-Jul-19 11:57 32.733631 -117.199772 12 25ft 0kts
21-Jul-19 11:58 32.733631 -117.199772 12 25ft 0kts
21-Jul-19 11:59 32.733901 -117.199703 12 25ft 6kts
21-Jul-19 12:00 32.734685 -117.199284 63 25ft 5kts
21-Jul-19 12:01 32.734187 -117.196573 106 26ft 19kts
21-Jul-19 12:02 32.733218 -117.192511 106 25ft 20kts
21-Jul-19 12:03 32.732256 -117.188566 105 24ft 21kts
21-Jul-19 12:04 32.731155 -117.184053 105 23ft 23kts
21-Jul-19 12:05 32.730248 -117.180272 106 22ft 21kts
21-Jul-19 12:06 32.729534 -117.176572 74 23ft 10kts
21-Jul-19 12:07 32.730619 -117.177490 286 24ft 52kts
21-Jul-19 12:08 32.736597 -117.203228 287 837ft 163kts
21-Jul-19 12:09 32.745697 -117.240118 286 2781ft 192kts
21-Jul-19 12:10 32.755679 -117.291879 261 4410ft 244kts
21-Jul-19 12:11 32.710904 -117.326842 168 6836ft 276kts
21-Jul-19 12:12 32.661220 -117.280410 137 9588ft 286kts
21-Jul-19 12:13 32.622029 -117.217322 110 11272ft 324kts
21-Jul-19 12:14 32.599191 -117.143068 110 12011ft 368kts
21-Jul-19 12:15 32.577665 -117.073555 110 12840ft 388kts
21-Jul-19 12:16 32.553141 -116.993934 111 14102ft 397kts
21-Jul-19 12:17 32.497756 -116.911449 141 15575ft 403kts
21-Jul-19 12:18 32.416214 -116.833216 141 17204ft 410kts
21-Jul-19 12:19 32.313376 -116.734562 141 18986ft 418kts
21-Jul-19 12:20 32.189901 -116.616517 141 20824ft 428kts
21-Jul-19 12:21 32.064830 -116.493606 140 22445ft 437kts
21-Jul-19 12:22 31.975332 -116.404577 140 23080ft 438kts
21-Jul-19 12:23 31.901088 -116.330997 141 23803ft 445kts
21-Jul-19 12:24 31.806045 -116.237038 141 24695ft 453kts
21-Jul-19 12:25 31.707810 -116.143634 144 25574ft 457kts
21-Jul-19 12:26 31.605911 -116.052864 144 26410ft 460kts
21-Jul-19 12:27 31.505997 -115.964112 144 27385ft 458kts
21-Jul-19 12:28 31.404563 -115.874267 144 28435ft 455kts
21-Jul-19 12:29 31.303886 -115.785345 144 29462ft 452kts
21-Jul-19 12:30 31.203750 -115.697143 144 30481ft 448kts
21-Jul-19 12:31 31.105915 -115.611167 144 32083ft 431kts
21-Jul-19 12:32 31.010631 -115.527706 144 33135ft 427kts
21-Jul-19 12:33 30.915243 -115.444371 144 33872ft 430kts
21-Jul-19 12:34 30.827082 -115.367523 144 34566ft 431kts
21-Jul-19 12:35 30.733108 -115.281574 143 34948ft 428kts
21-Jul-19 12:36 30.639512 -115.195199 143 34961ft 429kts
21-Jul-19 12:37 30.546018 -115.109152 142 34964ft 430kts
21-Jul-19 12:38 30.451649 -115.022512 142 34964ft 432kts
21-Jul-19 12:39 30.356340 -114.935247 142 34958ft 444kts
21-Jul-19 12:40 30.258986 -114.846311 142 34957ft 445kts
21-Jul-19 12:41 30.161857 -114.757807 142 34958ft 444kts
21-Jul-19 12:42 30.064560 -114.669393 142 34953ft 444kts
21-Jul-19 12:43 29.967261 -114.581204 142 34958ft 444kts
21-Jul-19 12:44 29.869786 -114.493081 142 34959ft 444kts
21-Jul-19 12:45 29.772515 -114.405367 142 34961ft 445kts
21-Jul-19 12:46 29.675099 -114.317743 142 34963ft 445kts
21-Jul-19 12:47 29.577721 -114.230375 142 34959ft 445kts
21-Jul-19 12:48 29.479835 -114.142773 142 34959ft 445kts
21-Jul-19 12:49 29.382057 -114.055445 142 34959ft 444kts
21-Jul-19 12:51 29.284335 -113.968426 142 34957ft 444kts
21-Jul-19 12:52 29.186552 -113.881574 142 34957ft 444kts
21-Jul-19 12:53 29.088974 -113.795118 142 34952ft 445kts
21-Jul-19 12:54 28.990620 -113.708195 142 34926ft 448kts
21-Jul-19 12:55 28.891212 -113.620557 142 34961ft 453kts
21-Jul-19 12:56 28.791320 -113.532706 142 35049ft 454kts
21-Jul-19 12:57 28.690951 -113.444654 142 35050ft 454kts
21-Jul-19 12:58 28.590702 -113.356925 142 35033ft 454kts
21-Jul-19 12:59 28.490682 -113.269618 142 35023ft 454kts
21-Jul-19 13:00 28.390358 -113.182260 142 35020ft 453kts
21-Jul-19 13:01 28.290225 -113.095280 142 35006ft 453kts
21-Jul-19 13:02 28.190138 -113.008551 142 34968ft 453kts
21-Jul-19 13:03 28.090121 -112.922088 141 34964ft 453kts
21-Jul-19 13:04 27.990001 -112.835748 141 34951ft 454kts
21-Jul-19 13:05 27.889201 -112.749032 140 34949ft 457kts
21-Jul-19 13:06 27.787592 -112.661828 140 34975ft 458kts
21-Jul-19 13:07 27.686250 -112.575061 140 34982ft 458kts
21-Jul-19 13:08 27.584853 -112.488454 140 34978ft 458kts
21-Jul-19 13:09 27.483478 -112.402072 140 34970ft 458kts
21-Jul-19 13:09 27.398712 -112.330001 141 34966ft 458kts
21-Jul-19 13:11 27.276909 -112.234681 146 34974ft 459kts
21-Jul-19 13:12 27.168096 -112.159440 146 34977ft 459kts
21-Jul-19 13:12 27.077592 -112.096996 146 34981ft 459kts
21-Jul-19 13:13 26.968588 -112.021952 146 34968ft 460kts
21-Jul-19 13:15 26.840603 -111.934067 147 34954ft 465kts
21-Jul-19 13:15 26.748452 -111.870930 147 34990ft 467kts
21-Jul-19 13:16 26.637619 -111.795153 147 35010ft 468kts
21-Jul-19 13:17 26.526000 -111.719051 147 35005ft 468kts
21-Jul-19 13:18 26.415157 -111.643617 147 34993ft 467kts
21-Jul-19 13:19 26.304063 -111.568183 147 34984ft 467kts
21-Jul-19 13:20 26.192602 -111.492674 147 34981ft 467kts
21-Jul-19 13:21 26.081761 -111.417751 147 34981ft 467kts
21-Jul-19 13:22 25.973252 -111.339831 135 34970ft 457kts
21-Jul-19 13:23 25.885135 -111.237228 132 34946ft 462kts
21-Jul-19 13:24 25.796280 -111.132960 131 34992ft 464kts
21-Jul-19 13:25 25.707317 -111.028826 131 35005ft 464kts
21-Jul-19 13:26 25.618881 -110.925548 131 34997ft 461kts
21-Jul-19 13:27 25.530610 -110.822707 131 34973ft 459kts
21-Jul-19 13:28 25.442639 -110.720456 131 34950ft 458kts
21-Jul-19 13:29 25.354849 -110.618636 131 34947ft 457kts
21-Jul-19 13:30 25.266792 -110.516758 131 34955ft 458kts
21-Jul-19 13:31 25.178805 -110.415090 130 34961ft 458kts
21-Jul-19 13:32 25.090735 -110.313569 131 34961ft 458kts
21-Jul-19 13:33 25.002043 -110.211570 131 34936ft 463kts
21-Jul-19 13:34 24.912485 -110.108800 131 34952ft 468kts
21-Jul-19 13:35 24.822328 -110.005576 131 34403ft 463kts
21-Jul-19 13:36 24.733052 -109.903585 131 32082ft 466kts
21-Jul-19 13:37 24.642476 -109.800361 131 29176ft 468kts
21-Jul-19 13:38 24.553496 -109.699155 131 26867ft 455kts
21-Jul-19 13:39 24.466909 -109.600850 131 24545ft 441kts
21-Jul-19 13:40 24.383039 -109.505858 131 22220ft 427kts
21-Jul-19 13:41 24.287385 -109.436701 175 19818ft 427kts
21-Jul-19 13:42 24.171715 -109.462059 190 17294ft 420kts
21-Jul-19 13:43 24.060500 -109.490362 190 15051ft 402kts
21-Jul-19 13:44 23.953437 -109.517591 190 12748ft 387kts
21-Jul-19 13:45 23.852574 -109.549621 195 10758ft 361kts
21-Jul-19 13:46 23.768517 -109.580642 194 10000ft 292kts
21-Jul-19 13:47 23.691199 -109.609147 194 9048ft 291kts
21-Jul-19 13:48 23.615096 -109.637173 194 7675ft 285kts
21-Jul-19 13:49 23.540643 -109.664569 194 6329ft 280kts
21-Jul-19 13:50 23.471639 -109.689966 193 5187ft 240kts
21-Jul-19 13:51 23.410620 -109.712338 193 4032ft 228kts
21-Jul-19 13:52 23.350880 -109.734380 193 3176ft 217kts
21-Jul-19 13:53 23.295929 -109.737275 168 2821ft 187kts
21-Jul-19 13:54 23.245734 -109.731481 168 1927ft 169kts
21-Jul-19 13:55 23.205890 -109.725834 162 1131ft 134kts
21-Jul-19 13:56 23.168692 -109.721050 167 476ft 134kts
21-Jul-19 13:57 23.148258 -109.718817 173 345ft 21kts
21-Jul-19 13:58 23.145698 -109.716507 355 323ft 18kts
21-Jul-19 13:59 23.153357 -109.717296 354 350ft 29kts
21-Jul-19 14:00 23.155844 -109.716288 85 350ft 3kts
21-Jul-19 14:01 23.155873 -109.716019 84 348ft 0kts
21-Jul-19 14:02 23.166494 -109.720790 167 427ft 133kts
21-Jul-19 14:03 23.219383 -109.728381 165 1409ft 137kts
21-Jul-19 14:04 23.182158 -109.722427 167 738ft 135kts
21-Jul-19 14:05 23.177272 -109.721908 167 634ft 133kts
21-Jul-19 14:06 23.197252 -109.724204 168 1005ft 135kts
21-Jul-19 14:07 23.160222 -109.720083 170 371ft 124kts
21-Jul-19 14:08 23.154399 -109.719420 174 364ft 87kts
21-Jul-19 14:09 23.213976 -109.727550 163 1282ft 134kts
21-Jul-19 14:10 23.176880 -109.721868 167 627ft 133kts
21-Jul-19 14:11 23.155873 -109.716019 84 348ft 0kts

Navigation Log

Ident Type
Flight plan parsing failed, navigation log unavailable